createdAt,value
2024-05-09T00:01:47.235Z,92.08
2024-05-09T00:04:16.943Z,91.57
2024-05-09T00:06:49.261Z,91.86
2024-05-09T00:09:18.853Z,92.51
2024-05-09T00:11:48.801Z,92.65
2024-05-09T00:14:18.498Z,92.69
2024-05-09T00:16:48.591Z,92.62
2024-05-09T00:19:18.672Z,92.88
2024-05-09T00:21:51.026Z,92.96
2024-05-09T00:24:20.643Z,92.62
2024-05-09T00:26:50.344Z,93.15
2024-05-09T00:29:20.074Z,92.72
2024-05-09T00:31:50.235Z,92.65
2024-05-09T00:34:20.074Z,92.19
2024-05-09T00:36:52.447Z,92.52
2024-05-09T00:39:22.140Z,92.31
2024-05-09T00:41:51.883Z,92.23
2024-05-09T00:44:21.700Z,91.71
2024-05-09T00:46:54.629Z,91.60
2024-05-09T00:49:24.679Z,91.50
2024-05-09T00:51:59.577Z,90.67
2024-05-09T00:54:29.851Z,90.67
2024-05-09T00:56:59.750Z,91.40
2024-05-09T00:59:30.599Z,91.77
2024-05-09T01:02:02.395Z,91.67
2024-05-09T01:04:32.215Z,91.64
2024-05-09T01:07:04.607Z,92.65
2024-05-09T01:09:34.253Z,91.98
2024-05-09T01:12:04.201Z,92.10
2024-05-09T01:14:34.264Z,92.31
2024-05-09T01:17:04.057Z,92.42
2024-05-09T01:19:34.358Z,92.49
2024-05-09T01:22:08.079Z,92.07
2024-05-09T01:24:40.325Z,92.10
2024-05-09T01:27:09.959Z,92.24
2024-05-09T01:29:40.638Z,92.13
2024-05-09T01:32:10.533Z,91.79
2024-05-09T01:34:40.207Z,91.22
2024-05-09T01:37:09.844Z,91.69
2024-05-09T01:39:42.357Z,91.45
2024-05-09T01:42:12.093Z,91.75
2024-05-09T01:44:43.425Z,91.50
2024-05-09T01:47:13.299Z,91.61
2024-05-09T01:49:43.387Z,91.01
2024-05-09T01:52:13.088Z,91.07
2024-05-09T01:54:45.392Z,91.26
2024-05-09T01:57:15.225Z,90.89
2024-05-09T01:59:44.900Z,91.17
2024-05-09T02:02:15.306Z,91.33
2024-05-09T02:04:48.691Z,91.16
2024-05-09T02:07:18.625Z,91.32
2024-05-09T02:09:50.983Z,91.87
2024-05-09T02:12:20.863Z,92.00
2024-05-09T02:14:50.667Z,91.85
2024-05-09T02:17:20.444Z,91.67
2024-05-09T02:19:50.286Z,91.53
2024-05-09T02:22:19.934Z,91.23
2024-05-09T02:24:52.284Z,91.77
2024-05-09T02:27:22.051Z,91.16
2024-05-09T02:29:51.707Z,91.78
2024-05-09T02:32:25.953Z,92.01
2024-05-09T02:34:55.782Z,91.91
2024-05-09T02:37:22.867Z,91.94
2024-05-09T02:39:55.168Z,92.03
2024-05-09T02:42:24.815Z,92.02
2024-05-09T02:44:52.019Z,91.74
2024-05-09T02:47:21.834Z,91.44
2024-05-09T02:49:49.080Z,91.51
2024-05-09T02:52:21.218Z,91.27
2024-05-09T02:54:48.329Z,91.32
2024-05-09T02:57:22.400Z,92.40
2024-05-09T02:59:49.827Z,91.81
2024-05-09T03:02:20.139Z,91.38
2024-05-09T03:04:47.362Z,91.84
2024-05-09T03:07:19.741Z,92.38
2024-05-09T03:09:47.409Z,92.43
2024-05-09T03:12:20.339Z,93.11
2024-05-09T03:14:50.256Z,91.91
2024-05-09T03:17:20.005Z,91.78
2024-05-09T03:19:47.100Z,92.08
2024-05-09T03:22:16.766Z,91.48
2024-05-09T03:24:43.887Z,92.07
2024-05-09T03:27:13.644Z,91.78
2024-05-09T03:29:43.396Z,91.80
2024-05-09T03:32:13.233Z,91.32
2024-05-09T03:34:40.368Z,91.61
2024-05-09T03:37:10.104Z,91.66
2024-05-09T03:39:39.751Z,91.58
2024-05-09T03:42:09.423Z,91.08
2024-05-09T03:44:39.436Z,91.59
2024-05-09T03:47:09.108Z,91.71
2024-05-09T03:49:38.870Z,92.15
2024-05-09T03:52:06.524Z,92.01
2024-05-09T03:54:37.853Z,92.33
2024-05-09T03:57:05.638Z,92.30
2024-05-09T03:59:36.817Z,91.67
2024-05-09T04:02:06.504Z,91.25
2024-05-09T04:04:39.125Z,92.30
2024-05-09T04:07:06.999Z,92.83
2024-05-09T04:09:36.687Z,92.20
2024-05-09T04:12:05.358Z,92.32
2024-05-09T04:14:36.029Z,92.47
2024-05-09T04:17:03.531Z,92.54
2024-05-09T04:19:33.324Z,92.90
2024-05-09T04:22:03.073Z,92.67
2024-05-09T04:24:32.786Z,92.36
2024-05-09T04:26:59.832Z,93.16
2024-05-09T04:29:31.036Z,92.98
2024-05-09T04:31:58.177Z,92.46
2024-05-09T04:34:28.097Z,92.85
2024-05-09T04:36:55.180Z,92.21
2024-05-09T04:39:27.524Z,92.99
2024-05-09T04:41:54.651Z,93.04
2024-05-09T04:44:24.641Z,93.71
2024-05-09T04:46:51.788Z,93.24
2024-05-09T04:49:22.571Z,93.48
2024-05-09T04:51:49.788Z,94.46
2024-05-09T04:54:26.259Z,94.61
2024-05-09T04:57:03.771Z,94.75
2024-05-09T04:59:33.463Z,94.86
2024-05-09T05:02:00.788Z,94.96
2024-05-09T05:04:31.109Z,95.41
2024-05-09T05:07:01.364Z,94.19
2024-05-09T05:09:32.348Z,94.37
2024-05-09T05:12:01.995Z,94.92
2024-05-09T05:14:34.469Z,95.57
2024-05-09T05:17:01.544Z,95.76
2024-05-09T05:19:31.432Z,96.27
2024-05-09T05:22:02.409Z,96.81
2024-05-09T05:24:29.441Z,96.63
2024-05-09T05:26:59.786Z,96.95
2024-05-09T05:29:26.981Z,97.29
2024-05-09T05:31:59.699Z,97.34
2024-05-09T05:34:26.798Z,97.57
2024-05-09T05:36:56.574Z,97.50
2024-05-09T05:39:24.850Z,97.97
2024-05-09T05:41:54.472Z,97.79
2024-05-09T05:44:21.623Z,97.69
2024-05-09T05:46:51.880Z,97.86
2024-05-09T05:49:21.727Z,98.10
2024-05-09T05:51:51.402Z,97.69
2024-05-09T05:54:18.441Z,97.96
2024-05-09T05:56:48.022Z,98.10
2024-05-09T05:59:15.578Z,97.66
2024-05-09T06:01:45.427Z,97.33
2024-05-09T06:04:12.622Z,97.70
2024-05-09T06:06:44.966Z,97.26
2024-05-09T06:09:12.041Z,96.55
2024-05-09T06:11:42.875Z,95.94
2024-05-09T06:14:10.050Z,96.22
2024-05-09T06:16:40.587Z,96.09
2024-05-09T06:19:07.913Z,95.22
2024-05-09T06:21:37.568Z,94.29
2024-05-09T06:24:07.414Z,91.91
2024-05-09T06:26:37.154Z,90.65
2024-05-09T06:29:04.187Z,88.78
2024-05-09T06:31:33.936Z,86.74
2024-05-09T06:34:01.258Z,85.93
2024-05-09T06:36:30.972Z,84.19
2024-05-09T06:38:58.015Z,84.79
2024-05-09T06:41:30.368Z,83.87
2024-05-09T06:43:58.224Z,81.48
2024-05-09T06:46:29.404Z,81.32
2024-05-09T06:48:56.894Z,80.92
2024-05-09T06:51:26.632Z,78.77
2024-05-09T06:53:54.731Z,78.35
2024-05-09T06:56:24.575Z,78.44
2024-05-09T06:58:54.524Z,78.12
2024-05-09T07:01:24.510Z,77.63
2024-05-09T07:03:54.237Z,77.22
2024-05-09T07:06:21.357Z,75.97
2024-05-09T07:08:52.456Z,74.73
2024-05-09T07:11:20.028Z,75.05
2024-05-09T07:13:50.127Z,74.12
2024-05-09T07:16:19.994Z,71.90
2024-05-09T07:18:54.935Z,72.97
2024-05-09T07:21:22.525Z,71.74
2024-05-09T07:23:52.521Z,71.30
2024-05-09T07:26:19.742Z,70.98
2024-05-09T07:28:49.589Z,71.15
2024-05-09T07:31:19.330Z,69.77
2024-05-09T07:33:49.063Z,71.36
2024-05-09T07:36:16.242Z,68.50
2024-05-09T07:38:46.072Z,68.83
2024-05-09T07:41:14.505Z,68.17
2024-05-09T07:43:44.437Z,68.15
2024-05-09T07:47:14.082Z,65.83
2024-05-09T07:50:53.397Z,66.85
2024-05-09T07:53:20.957Z,65.08
2024-05-09T07:54:41.933Z,63.09
2024-05-09T07:57:09.047Z,61.99
2024-05-09T07:59:38.739Z,61.49
2024-05-09T08:02:06.331Z,62.99
2024-05-09T08:04:38.887Z,62.39
2024-05-09T08:07:06.156Z,63.03
2024-05-09T08:09:38.402Z,63.03
2024-05-09T08:12:05.821Z,62.54
2024-05-09T08:14:35.657Z,62.92
2024-05-09T08:17:02.839Z,60.15
2024-05-09T08:19:32.828Z,61.03
2024-05-09T08:22:07.074Z,59.01
2024-05-09T08:24:37.046Z,58.81
2024-05-09T08:27:04.517Z,56.37
2024-05-09T08:29:36.635Z,55.15
2024-05-09T08:32:05.926Z,55.76
2024-05-09T08:34:35.660Z,57.82
2024-05-09T08:37:12.978Z,58.73
2024-05-09T08:39:49.078Z,58.20
2024-05-09T08:42:18.477Z,55.26
2024-05-09T08:44:51.069Z,54.80
2024-05-09T08:47:18.257Z,54.21
2024-05-09T08:49:49.612Z,53.38
2024-05-09T08:52:19.286Z,52.28
2024-05-09T08:54:49.066Z,52.63
2024-05-09T08:57:17.095Z,52.12
2024-05-09T08:59:50.936Z,51.77
2024-05-09T09:02:19.454Z,53.17
2024-05-09T09:04:55.807Z,48.37
2024-05-09T09:07:26.627Z,48.96
2024-05-09T09:09:57.339Z,49.16
2024-05-09T09:12:24.378Z,52.50
2024-05-09T09:14:54.019Z,50.44
2024-05-09T09:17:21.045Z,50.31
2024-05-09T09:19:50.731Z,51.14
2024-05-09T09:22:19.734Z,50.31
2024-05-09T09:24:53.750Z,49.04
2024-05-09T09:27:22.442Z,51.09
2024-05-09T09:29:52.148Z,52.25
2024-05-09T09:32:19.440Z,52.76
2024-05-09T09:34:50.816Z,51.37
2024-05-09T09:37:23.459Z,52.26
2024-05-09T09:39:56.320Z,51.69
2024-05-09T09:42:27.668Z,51.80
2024-05-09T09:45:04.815Z,52.66
2024-05-09T09:47:35.102Z,52.97
2024-05-09T09:50:11.848Z,52.45
2024-05-09T09:52:41.714Z,54.50
2024-05-09T09:55:14.968Z,52.90
2024-05-09T09:57:45.355Z,52.96
2024-05-09T10:00:23.623Z,52.59
2024-05-09T10:02:54.162Z,51.35
2024-05-09T10:05:24.290Z,53.07
2024-05-09T10:07:55.354Z,53.15
2024-05-09T10:10:32.438Z,52.56
2024-05-09T10:13:00.795Z,52.43
2024-05-09T10:15:31.907Z,53.09
2024-05-09T10:18:05.282Z,52.62
2024-05-09T10:20:43.000Z,53.00
2024-05-09T10:23:24.384Z,52.22
2024-05-09T10:26:04.823Z,50.86
2024-05-09T10:28:33.509Z,50.44
2024-05-09T10:31:10.790Z,52.32
2024-05-09T10:33:39.292Z,51.56
2024-05-09T10:36:14.260Z,51.15
2024-05-09T10:38:41.950Z,49.67
2024-05-09T10:41:15.140Z,48.65
2024-05-09T10:43:42.519Z,49.63
2024-05-09T10:46:13.514Z,49.91
2024-05-09T10:48:43.312Z,48.55
2024-05-09T10:51:14.158Z,48.38
2024-05-09T10:53:43.324Z,48.62
2024-05-09T10:56:16.751Z,46.89
2024-05-09T10:58:44.652Z,47.33
2024-05-09T11:01:15.533Z,48.80
2024-05-09T11:03:47.247Z,48.92
2024-05-09T11:06:19.543Z,47.37
2024-05-09T11:08:47.426Z,47.85
2024-05-09T11:11:20.144Z,48.08
2024-05-09T11:13:47.306Z,46.59
2024-05-09T11:16:21.893Z,47.12
2024-05-09T11:18:56.905Z,48.10
2024-05-09T11:21:42.548Z,46.46
2024-05-09T11:24:11.290Z,47.27
2024-05-09T11:26:45.550Z,47.28
2024-05-09T11:29:15.051Z,47.41
2024-05-09T11:31:49.375Z,46.74
2024-05-09T11:34:16.695Z,46.36
2024-05-09T11:36:46.665Z,45.98
2024-05-09T11:39:14.745Z,46.67
2024-05-09T11:41:47.305Z,46.37
2024-05-09T11:44:14.314Z,46.58
2024-05-09T11:46:45.788Z,46.92
2024-05-09T11:49:14.370Z,46.38
2024-05-09T11:51:44.116Z,46.82
2024-05-09T11:54:11.157Z,48.01
2024-05-09T11:56:40.759Z,47.77
2024-05-09T11:59:11.484Z,48.27
2024-05-09T12:01:41.236Z,47.80
2024-05-09T12:04:09.336Z,47.01
2024-05-09T12:06:39.235Z,47.96
2024-05-09T12:09:06.271Z,48.24
2024-05-09T12:11:37.011Z,47.60
2024-05-09T12:14:05.829Z,47.96
2024-05-09T12:16:38.724Z,47.19
2024-05-09T12:19:06.075Z,46.70
2024-05-09T12:21:35.771Z,46.95
2024-05-09T12:24:02.802Z,46.09
2024-05-09T12:26:32.511Z,46.90
2024-05-09T12:28:59.674Z,46.37
2024-05-09T12:31:29.461Z,46.82
2024-05-09T12:34:00.353Z,47.67
2024-05-09T12:36:30.239Z,47.20
2024-05-09T12:38:57.353Z,46.91
2024-05-09T12:41:28.191Z,47.79
2024-05-09T12:43:55.222Z,48.25
2024-05-09T12:46:27.295Z,46.37
2024-05-09T12:48:54.741Z,46.04
2024-05-09T12:51:28.297Z,45.82
2024-05-09T12:53:55.376Z,45.24
2024-05-09T12:56:25.144Z,46.26
2024-05-09T12:58:52.218Z,45.74
2024-05-09T13:01:22.258Z,45.09
2024-05-09T13:03:49.732Z,45.25
2024-05-09T13:06:19.571Z,45.72
2024-05-09T13:08:49.399Z,44.60
2024-05-09T13:11:19.128Z,45.38
2024-05-09T13:13:46.472Z,45.47
2024-05-09T13:16:16.186Z,45.57
2024-05-09T13:18:44.495Z,45.39
2024-05-09T13:21:14.260Z,45.06
2024-05-09T13:23:41.216Z,44.74
2024-05-09T13:26:13.588Z,43.94
2024-05-09T13:28:41.202Z,43.90
2024-05-09T13:31:13.994Z,44.49
2024-05-09T13:33:41.169Z,44.68
2024-05-09T13:36:11.037Z,44.37
2024-05-09T13:38:38.191Z,45.71
2024-05-09T13:41:08.524Z,45.14
2024-05-09T13:43:38.886Z,44.47
2024-05-09T13:46:08.789Z,44.13
2024-05-09T13:48:35.978Z,43.99
2024-05-09T13:51:06.002Z,44.56
2024-05-09T13:53:34.264Z,45.11
2024-05-09T13:56:04.345Z,44.49
2024-05-09T13:58:31.767Z,42.98
2024-05-09T14:01:05.403Z,43.73
2024-05-09T14:03:34.288Z,43.60
2024-05-09T14:06:04.274Z,44.12
2024-05-09T14:08:31.400Z,43.25
2024-05-09T14:11:01.297Z,43.30
2024-05-09T14:13:28.666Z,43.86
2024-05-09T14:15:58.632Z,43.39
2024-05-09T14:18:29.510Z,42.63
2024-05-09T14:21:00.356Z,42.92
2024-05-09T14:23:27.391Z,43.25
2024-05-09T14:25:57.053Z,43.41
2024-05-09T14:28:27.924Z,43.11
2024-05-09T14:31:01.274Z,42.87
2024-05-09T14:33:31.364Z,42.61
2024-05-09T14:36:02.881Z,43.64
2024-05-09T14:38:30.333Z,44.14
2024-05-09T14:41:00.556Z,42.90
2024-05-09T14:43:30.769Z,43.50
2024-05-09T14:46:00.778Z,43.18
2024-05-09T14:48:30.804Z,42.74
2024-05-09T14:51:00.538Z,43.42
2024-05-09T14:53:29.901Z,42.05
2024-05-09T14:56:01.257Z,42.91
2024-05-09T14:58:29.203Z,42.43
2024-05-09T15:01:00.924Z,41.77
2024-05-09T15:03:30.741Z,41.92
2024-05-09T15:06:01.212Z,41.93
2024-05-09T15:08:28.419Z,42.48
2024-05-09T15:10:58.477Z,42.77
2024-05-09T15:13:25.763Z,42.44
2024-05-09T15:15:58.926Z,41.83
2024-05-09T15:18:26.696Z,42.74
2024-05-09T15:21:00.373Z,42.34
2024-05-09T15:23:28.444Z,42.40
2024-05-09T15:25:58.322Z,43.00
2024-05-09T15:28:25.705Z,42.42
2024-05-09T15:30:55.624Z,43.14
2024-05-09T15:33:22.743Z,42.31
2024-05-09T15:35:55.019Z,42.80
2024-05-09T15:38:28.463Z,41.20
2024-05-09T15:40:59.868Z,41.70
2024-05-09T15:43:28.071Z,41.59
2024-05-09T15:46:00.033Z,42.67
2024-05-09T15:48:27.315Z,42.20
2024-05-09T15:50:57.810Z,41.79
2024-05-09T15:53:27.662Z,41.34
2024-05-09T15:55:58.315Z,41.48
2024-05-09T15:58:25.730Z,41.31
2024-05-09T16:00:58.374Z,41.13
2024-05-09T16:03:26.222Z,42.09
2024-05-09T16:05:57.666Z,41.84
2024-05-09T16:08:27.789Z,42.54
2024-05-09T16:10:57.714Z,42.53
2024-05-09T16:13:25.740Z,41.26
2024-05-09T16:15:57.042Z,41.27
2024-05-09T16:18:24.570Z,41.84
2024-05-09T16:20:59.533Z,42.58
2024-05-09T16:23:30.005Z,42.26
2024-05-09T16:26:00.608Z,42.87
2024-05-09T16:28:28.885Z,42.04
2024-05-09T16:30:59.472Z,42.35
2024-05-09T16:33:27.586Z,42.00
2024-05-09T16:35:58.911Z,42.04
2024-05-09T16:38:29.703Z,42.33
2024-05-09T16:40:59.937Z,42.62
2024-05-09T16:43:27.199Z,42.78
2024-05-09T16:45:56.892Z,41.94
2024-05-09T16:48:25.039Z,41.34
2024-05-09T16:50:54.784Z,41.82
2024-05-09T16:53:22.710Z,42.15
2024-05-09T16:55:55.464Z,44.74
2024-05-09T16:58:22.947Z,42.67
2024-05-09T17:00:53.311Z,42.49
2024-05-09T17:03:23.577Z,42.12
2024-05-09T17:05:53.601Z,42.68
2024-05-09T17:08:23.453Z,42.95
2024-05-09T17:10:53.326Z,42.71
2024-05-09T17:13:23.267Z,42.72
2024-05-09T17:15:53.356Z,43.25
2024-05-09T17:18:20.902Z,43.08
2024-05-09T17:20:51.764Z,43.35
2024-05-09T17:23:18.774Z,42.65
2024-05-09T17:25:48.878Z,42.59
2024-05-09T17:28:19.064Z,43.20
2024-05-09T17:30:49.144Z,42.89
2024-05-09T17:33:16.329Z,42.75
2024-05-09T17:35:50.285Z,42.85
2024-05-09T17:38:17.810Z,43.16
2024-05-09T17:40:47.670Z,43.09
2024-05-09T17:43:15.221Z,42.98
2024-05-09T17:45:47.829Z,42.86
2024-05-09T17:48:15.190Z,43.33
2024-05-09T17:50:45.032Z,43.38
2024-05-09T17:53:12.173Z,43.41
2024-05-09T17:55:42.658Z,43.98
2024-05-09T17:58:10.354Z,43.74
2024-05-09T18:00:42.220Z,44.16
2024-05-09T18:03:13.604Z,44.21
2024-05-09T18:05:45.041Z,44.36
2024-05-09T18:08:13.101Z,45.14
2024-05-09T18:10:43.293Z,44.79
2024-05-09T18:13:11.422Z,45.70
2024-05-09T18:15:41.781Z,45.01
2024-05-09T18:18:10.631Z,45.52
2024-05-09T18:20:45.670Z,45.68
2024-05-09T18:23:16.024Z,45.81
2024-05-09T18:25:48.063Z,46.22
2024-05-09T18:28:15.929Z,46.42
2024-05-09T18:30:46.076Z,46.99
2024-05-09T18:33:13.707Z,47.83
2024-05-09T18:35:47.380Z,48.31
2024-05-09T18:38:14.688Z,48.01
2024-05-09T18:40:47.212Z,47.96
2024-05-09T18:43:16.404Z,48.51
2024-05-09T18:45:46.587Z,48.06
2024-05-09T18:48:13.866Z,48.81
2024-05-09T18:50:46.409Z,49.89
2024-05-09T18:53:14.285Z,50.88
2024-05-09T18:55:44.397Z,51.01
2024-05-09T18:58:11.989Z,51.60
2024-05-09T19:00:45.308Z,51.51
2024-05-09T19:03:17.594Z,52.94
2024-05-09T19:05:50.242Z,53.11
2024-05-09T19:08:17.350Z,53.64
2024-05-09T19:10:47.899Z,54.95
2024-05-09T19:13:15.400Z,55.30
2024-05-09T19:15:45.414Z,56.57
2024-05-09T19:18:13.931Z,57.28
2024-05-09T19:20:44.362Z,57.53
2024-05-09T19:23:14.135Z,57.45
2024-05-09T19:25:43.955Z,57.95
2024-05-09T19:28:11.039Z,58.53
2024-05-09T19:30:42.576Z,58.61
2024-05-09T19:33:12.750Z,58.65
2024-05-09T19:35:43.932Z,58.34
2024-05-09T19:38:13.878Z,58.59
2024-05-09T19:40:43.663Z,59.25
2024-05-09T19:43:11.165Z,59.12
2024-05-09T19:45:41.153Z,59.66
2024-05-09T19:48:08.676Z,59.93
2024-05-09T19:50:43.141Z,60.30
2024-05-09T19:53:14.782Z,60.27
2024-05-09T19:55:45.038Z,61.11
2024-05-09T19:58:12.929Z,61.87
2024-05-09T20:00:44.382Z,60.89
2024-05-09T20:03:13.174Z,61.22
2024-05-09T20:05:45.129Z,61.47
2024-05-09T20:08:15.271Z,61.39
2024-05-09T20:10:45.234Z,61.52
2024-05-09T20:13:13.711Z,61.67
2024-05-09T20:15:43.501Z,61.79
2024-05-09T20:18:10.959Z,61.98
2024-05-09T20:20:43.072Z,61.70
2024-05-09T20:23:14.637Z,62.09
2024-05-09T20:25:44.780Z,62.23
2024-05-09T20:28:11.993Z,62.29
2024-05-09T20:30:42.076Z,62.89
2024-05-09T20:33:10.034Z,61.99
2024-05-09T20:35:40.541Z,62.78
2024-05-09T20:38:07.931Z,62.49
2024-05-09T20:40:40.488Z,62.92
2024-05-09T20:43:10.254Z,63.38
2024-05-09T20:45:41.265Z,62.64
2024-05-09T20:48:09.626Z,63.17
2024-05-09T20:50:42.027Z,63.38
2024-05-09T20:53:11.102Z,63.78
2024-05-09T20:55:44.537Z,63.13
2024-05-09T20:58:12.255Z,63.73
2024-05-09T21:00:45.017Z,64.13
2024-05-09T21:03:16.149Z,63.83
2024-05-09T21:05:47.681Z,64.03
2024-05-09T21:08:15.509Z,63.73
2024-05-09T21:10:48.113Z,64.07
2024-05-09T21:13:15.335Z,65.13
2024-05-09T21:15:45.169Z,66.13
2024-05-09T21:18:12.458Z,66.77
2024-05-09T21:20:42.235Z,67.78
2024-05-09T21:23:09.249Z,68.56
2024-05-09T21:25:38.901Z,69.23
2024-05-09T21:28:08.850Z,69.45
2024-05-09T21:30:42.481Z,70.13
2024-05-09T21:33:12.681Z,70.41
2024-05-09T21:35:44.606Z,71.09
2024-05-09T21:38:13.806Z,71.21
2024-05-09T21:40:44.214Z,71.21
2024-05-09T21:43:14.588Z,71.31
2024-05-09T21:45:44.777Z,70.16
2024-05-09T21:48:13.241Z,70.65
2024-05-09T21:50:43.207Z,70.59
2024-05-09T21:53:11.206Z,70.40
2024-05-09T21:55:41.134Z,71.13
2024-05-09T21:58:08.439Z,71.04
2024-05-09T22:00:42.879Z,70.83
2024-05-09T22:03:11.616Z,70.68
2024-05-09T22:05:44.376Z,70.45
2024-05-09T22:08:12.134Z,71.02
2024-05-09T22:10:41.877Z,71.20
2024-05-09T22:13:11.936Z,71.49
2024-05-09T22:15:42.370Z,72.18
2024-05-09T22:18:12.655Z,72.05
2024-05-09T22:20:44.887Z,72.90
2024-05-09T22:23:16.364Z,73.00
2024-05-09T22:25:43.437Z,72.81
2024-05-09T22:28:14.053Z,73.04
2024-05-09T22:30:46.095Z,73.42
2024-05-09T22:33:17.270Z,73.43
2024-05-09T22:35:44.524Z,73.84
2024-05-09T22:38:14.186Z,74.14
2024-05-09T22:40:47.452Z,74.02
2024-05-09T22:43:24.737Z,74.66
2024-05-09T22:45:55.667Z,74.95
2024-05-09T22:48:26.412Z,74.37
2024-05-09T22:50:55.381Z,74.97
2024-05-09T22:53:26.400Z,74.64
2024-05-09T22:55:54.126Z,74.79
2024-05-09T22:58:24.405Z,75.38
2024-05-09T23:00:56.048Z,75.71
2024-05-09T23:03:26.793Z,75.97
2024-05-09T23:05:54.023Z,76.12
2024-05-09T23:08:23.777Z,76.45
2024-05-09T23:10:51.139Z,76.84
2024-05-09T23:13:21.169Z,76.75
2024-05-09T23:15:49.352Z,76.99
2024-05-09T23:18:22.722Z,77.08
2024-05-09T23:20:50.111Z,76.75
2024-05-09T23:23:19.891Z,76.99
2024-05-09T23:25:47.028Z,77.31
2024-05-09T23:28:16.954Z,76.77
2024-05-09T23:30:44.079Z,77.27
2024-05-09T23:33:15.306Z,76.92
2024-05-09T23:35:45.198Z,77.45
2024-05-09T23:38:15.263Z,77.79
2024-05-09T23:40:43.296Z,77.94
2024-05-09T23:43:14.219Z,77.85
2024-05-09T23:45:42.512Z,77.55
2024-05-09T23:48:12.824Z,78.09
2024-05-09T23:50:40.854Z,77.51
2024-05-09T23:53:14.292Z,77.86
2024-05-09T23:55:41.480Z,78.09
2024-05-09T23:58:11.592Z,78.35
